• Join FlightAware (Why Join?)
  • Login
  • US Flag 
04:25AM EDT


 

Airport Tracker/Info


-or-


 

Live Flight TrackerFlight Track Log ✈ ASQ4179 ✈ 25-Jun-2013 ✈ KOKC - KIAH

Flight Track Log - Related Links

Times and Time Zones

All times are in EDT time to prevent confusion due to time zone crossing. See the ASQ4179 flight status page for this flight to view local times or setup timezone preferences in your user account.

Time Position Orientation Groundspeed Altitude Reporting Facility
EDT Latitude Longitude Course Direction KTS MPH feet Rate Location/Type
12:17PM 35.3872 -97.6097 170° South 136 157 1,900  Level Fort Worth Center
12:19PM 35.3144 -97.5942 170° South 225 259 5,200 2,340 Climbing Fort Worth Center
12:19PM 35.2622 -97.5992 184° South 255 293 7,200 2,160 Climbing Fort Worth Center
12:21PM 35.1767 -97.5939 177° South 285 328 9,600 1,560 Climbing Fort Worth Center
12:22PM 35.0933 -97.5811 173° South 295 339 10,700 1,140 Climbing Fort Worth Center
12:23PM 35.0014 -97.5631 171° South 336 387 11,900 1,260 Climbing Fort Worth Center
12:24PM 34.9036 -97.5350 167° South 356 410 13,300 1,440 Climbing Fort Worth Center
12:25PM 34.8075 -97.4844 157° South 366 421 14,800 1,440 Climbing Fort Worth Center
12:26PM 34.7094 -97.4336 157° South 372 428 16,200 1,440 Climbing Fort Worth Center
12:27PM 34.6114 -97.3808 156° South 377 434 17,700 1,440 Climbing Fort Worth Center
12:28PM 34.5133 -97.3303 157° South 377 434 19,100 1,140 Climbing Fort Worth Center
12:29PM 34.4092 -97.2750 156° South 388 447 20,000 840 Climbing Fort Worth Center
12:30PM 34.3025 -97.2200 157° South 403 464 20,800 900 Climbing Fort Worth Center
12:31PM 34.1919 -97.1700 159° South 419 482 21,900 1,080 Climbing Fort Worth Center
12:32PM 34.0769 -97.1453 170° South 419 482 23,000 1,140 Climbing Fort Worth Center
12:33PM 33.9600 -97.1181 169° South 424 488 24,200 1,080 Climbing Fort Worth Center
12:34PM 33.8392 -97.0983 172° South 429 494 25,200 960 Climbing Fort Worth Center
12:35PM 33.7139 -97.0689 169° South 422 486 26,200 900 Climbing Fort Worth Center
12:36PM 33.5925 -97.0444 170° South 434 499 27,100 960 Climbing Fort Worth Center
12:37PM 33.4694 -97.0225 172° South 447 514 28,200 900 Climbing Fort Worth Center
12:38PM 33.3461 -96.9956 170° South 447 514 29,000 900 Climbing Fort Worth Center
12:39PM 33.2208 -96.9714 171° South 452 520 30,100 900 Climbing Fort Worth Center
12:40PM 33.1039 -96.9472 170° South 462 532 30,900 420 Climbing Fort Worth Center
12:41PM 32.9619 -96.9183 170° South 472 543 31,000  Climbing Fort Worth Center
12:42PM 32.8303 -96.8869 169° South 480 552 31,000  Level Fort Worth Center
12:43PM 32.6986 -96.8531 168° South 487 560 31,000  Level Fort Worth Center
12:44PM 32.5772 -96.8192 167° South 487 560 31,000  Level Fort Worth Center
12:45PM 32.4372 -96.7758 165° South 487 560 31,000  Level Fort Worth Center
12:46PM 32.3181 -96.7422 167° South 482 555 31,000  Level Fort Worth Center
12:47PM 32.1906 -96.7039 166° South 482 555 31,000 -60 Level Fort Worth Center
12:48PM 32.0608 -96.6681 167° South 477 549 30,900 -600 Descending Fort Worth Center
12:49PM 31.9186 -96.6278 166° South 472 543 29,900 -1,020 Descending Fort Worth Center
12:50PM 31.7869 -96.5872 165° South 472 543 28,900 -1,020 Descending Fort Worth Center
12:51PM 31.6392 -96.5475 167° South 481 554 27,800 -900 Descending Houston Center
12:52PM 31.5061 -96.5078 166° South 484 557 27,000 -720 Descending Houston Center
12:53PM 31.3825 -96.4361 154° Southeast 487 560 26,400 -780 Descending Houston Center
12:54PM 31.2636 -96.3611 152° Southeast 479 551 25,400 -960 Descending Houston Center
12:55PM 31.1442 -96.2867 152° Southeast 479 551 24,500 -1,020 Descending Houston Center
12:56PM 31.0275 -96.2156 152° Southeast 469 540 23,300 -1,920 Descending Houston Center
12:57PM 30.8978 -96.1342 152° Southeast 451 519 20,600 -2,460 Descending Houston Center
12:58PM 30.7917 -96.0686 152° Southeast 432 497 18,300 -2,280 Descending Houston Center
12:59PM 30.6858 -96.0044 152° Southeast 406 467 16,000 -2,220 Descending Houston Center
01:00PM 30.6083 -95.9589 153° Southeast 396 456 14,300 -1,800 Descending Houston Center
01:01PM 30.5019 -95.8919 152° Southeast 387 445 12,300 -1,020 Descending Houston Center
01:02PM 30.4208 -95.8283 146° Southeast 351 404 12,000 -300 Descending Houston Center
01:03PM 30.3603 -95.7653 138° Southeast 295 339 11,700 -840 Descending Houston Center
01:04PM 30.2886 -95.6894 138° Southeast 291 335 10,300 -1,440 Descending Houston Center
01:05PM 30.2272 -95.6272 139° Southeast 292 336 8,800 -1,560 Descending Houston Center
01:06PM 30.1697 -95.5650 137° Southeast 286 329 7,100 -1,260 Descending Houston Center
01:07PM 30.1211 -95.5039 133° Southeast 263 303 6,300 -540 Descending Houston Center
01:08PM 30.1072 -95.4194 101° East 283 326 6,000 -180 Descending Houston Center
01:10PM 30.1053 -95.3069 91° East 289 333 6,000 -720 Level Houston Center
01:10PM 30.1064 -95.2269 89° East 261 300 4,600 -1,800 Descending Houston Center
01:12PM 30.0772 -95.1786 125° Southeast 228 262 2,500 -2,040 Descending Houston Center